Time;durP1;ratioP1;P1;durP2;ratioP2;P2;SDS_P1;SDS_P2;PMS_P1;PMS_P2;Temp;Humidity;BMP_temperature;BMP_pressure;BME280_temperature;BME280_humidity;BME280_pressure;Samples;Min_cycle;Max_cycle;Signal;HPM_P1;HPM_P2
2023/08/07 00:01:56;;;;;;;798.17;712.83;;;;;;;;;;4992384;28;20166;-65
2023/08/07 00:04:23;;;;;;;780.25;700.63;;;;;;;;;;4993191;28;20069;-66
2023/08/07 00:06:50;;;;;;;786.08;705.92;;;;;;;;;;4992691;28;20042;-64
2023/08/07 00:09:16;;;;;;;805.05;719.03;;;;;;;;;;4992277;28;20042;-65
2023/08/07 00:11:43;;;;;;;772.85;692.65;;;;;;;;;;4992247;28;20447;-65
2023/08/07 00:14:09;;;;;;;776.47;694.75;;;;;;;;;;4992498;28;20043;-65
2023/08/07 00:16:36;;;;;;;786.60;705.75;;;;;;;;;;4993063;28;20140;-66
2023/08/07 00:19:02;;;;;;;774.40;693.33;;;;;;;;;;4992179;28;20050;-66
2023/08/07 00:21:29;;;;;;;780.38;699.25;;;;;;;;;;4992051;28;20038;-66
2023/08/07 00:23:56;;;;;;;767.63;688.03;;;;;;;;;;4992240;28;20117;-65
2023/08/07 00:26:22;;;;;;;772.40;690.97;;;;;;;;;;4990223;28;20039;-65
2023/08/07 00:28:49;;;;;;;765.72;685.38;;;;;;;;;;4992354;28;20109;-65
2023/08/07 00:31:16;;;;;;;776.70;695.13;;;;;;;;;;4991738;28;20522;-65
2023/08/07 00:33:42;;;;;;;764.45;683.28;;;;;;;;;;4990538;28;20054;-64
2023/08/07 00:36:09;;;;;;;766.47;686.60;;;;;;;;;;4990256;28;20082;-66
2023/08/07 00:38:36;;;;;;;748.70;668.80;;;;;;;;;;4991905;28;20047;-64
2023/08/07 00:41:02;;;;;;;768.83;684.92;;;;;;;;;;4991063;28;20117;-66
2023/08/07 00:43:29;;;;;;;743.05;665.05;;;;;;;;;;4991444;28;20050;-66
2023/08/07 00:45:56;;;;;;;756.85;677.85;;;;;;;;;;4991904;28;20046;-66
2023/08/07 00:48:22;;;;;;;760.00;678.92;;;;;;;;;;4989666;28;20443;-66
2023/08/07 00:50:50;;;;;;;754.33;674.72;;;;;;;;;;4990402;28;20484;-66
2023/08/07 00:53:17;;;;;;;740.47;661.15;;;;;;;;;;4991605;28;20038;-66
2023/08/07 00:55:44;;;;;;;750.75;669.17;;;;;;;;;;4991230;28;20117;-65
2023/08/07 00:58:10;;;;;;;734.17;655.55;;;;;;;;;;4984432;28;20046;-65
2023/08/07 01:00:37;;;;;;;740.45;660.72;;;;;;;;;;4987145;28;20054;-65
2023/08/07 01:03:07;;;;;;;751.35;670.03;;;;;;;;;;4987497;28;20057;-66
2023/08/07 01:05:34;;;;;;;741.90;662.67;;;;;;;;;;4987903;28;20510;-66
2023/08/07 01:08:01;;;;;;;746.38;664.42;;;;;;;;;;4989399;28;20811;-67
2023/08/07 01:10:48;;;;;;;732.25;653.38;;;;;;;;;;4991761;28;20093;-65
2023/08/07 01:13:28;;;;;;;745.95;666.05;;;;;;;;;;4969474;28;20058;-66
2023/08/07 01:15:55;;;;;;;732.42;653.72;;;;;;;;;;4969267;28;20070;-64
2023/08/07 01:18:22;;;;;;;739.95;660.70;;;;;;;;;;4949105;29;20138;-66
2023/08/07 01:20:49;;;;;;;726.70;648.47;;;;;;;;;;4946104;28;20059;-68
2023/08/07 01:23:15;;;;;;;735.17;655.97;;;;;;;;;;4965153;28;20125;-65
2023/08/07 01:25:42;;;;;;;753.65;673.55;;;;;;;;;;4962749;28;20075;-65
2023/08/07 01:28:15;;;;;;;727.80;649.47;;;;;;;;;;4948712;28;20075;-66
2023/08/07 01:30:44;;;;;;;729.58;650.67;;;;;;;;;;4949149;28;20074;-66
2023/08/07 01:33:22;;;;;;;729.03;650.67;;;;;;;;;;4968472;28;20047;-66
2023/08/07 01:35:51;;;;;;;739.17;659.40;;;;;;;;;;4947384;28;20413;-65
2023/08/07 01:38:20;;;;;;;739.60;658.90;;;;;;;;;;4968630;28;20085;-65
2023/08/07 01:40:47;;;;;;;736.97;657.75;;;;;;;;;;4968521;28;20051;-69
2023/08/07 01:43:14;;;;;;;717.85;640.75;;;;;;;;;;4968847;28;20051;-66
2023/08/07 01:45:40;;;;;;;727.60;647.30;;;;;;;;;;4942155;28;20043;-66
2023/08/07 01:48:07;;;;;;;727.22;647.30;;;;;;;;;;4951621;28;20523;-66
2023/08/07 01:50:35;;;;;;;733.10;651.97;;;;;;;;;;4966500;28;20064;-65
2023/08/07 01:53:02;;;;;;;753.90;670.03;;;;;;;;;;4987008;28;20046;-65
2023/08/07 01:55:29;;;;;;;740.17;661.10;;;;;;;;;;4989609;28;20679;-67
2023/08/07 01:57:55;;;;;;;723.25;644.20;;;;;;;;;;4990707;28;20074;-67
2023/08/07 02:03:23;;;;;;;737.40;657.88;;;;;;;;;;4986994;28;20042;-62
2023/08/07 02:05:49;;;;;;;727.45;648.22;;;;;;;;;;5009914;28;20125;-63
2023/08/07 02:08:16;;;;;;;743.33;662.80;;;;;;;;;;5005980;28;20049;-62
2023/08/07 02:10:43;;;;;;;734.67;655.13;;;;;;;;;;5007348;28;20496;-61
2023/08/07 02:13:10;;;;;;;757.45;676.08;;;;;;;;;;5008573;28;20054;-61
2023/08/07 02:15:37;;;;;;;733.53;653.95;;;;;;;;;;5001296;28;20056;-63
2023/08/07 02:18:03;;;;;;;727.03;648.85;;;;;;;;;;5001159;28;20100;-62
2023/08/07 02:20:30;;;;;;;733.42;653.55;;;;;;;;;;5008254;28;20395;-61
2023/08/07 02:22:57;;;;;;;754.92;658.05;;;;;;;;;;4989765;28;20420;-63
2023/08/07 02:25:25;;;;;;;734.95;657.05;;;;;;;;;;5010075;28;20066;-62
2023/08/07 02:27:52;;;;;;;717.53;639.28;;;;;;;;;;5005221;28;20060;-63
2023/08/07 02:30:18;;;;;;;727.55;647.90;;;;;;;;;;5009575;28;20053;-63
2023/08/07 02:32:46;;;;;;;721.10;641.83;;;;;;;;;;5008285;28;20038;-62
2023/08/07 02:35:12;;;;;;;728.65;648.47;;;;;;;;;;5009090;28;20419;-65
2023/08/07 02:37:39;;;;;;;732.20;651.72;;;;;;;;;;5010263;28;20054;-65
2023/08/07 02:40:06;;;;;;;736.45;655.97;;;;;;;;;;5008242;28;20092;-64
2023/08/07 02:42:32;;;;;;;737.95;656.90;;;;;;;;;;4991270;28;20173;-64
2023/08/07 02:44:59;;;;;;;729.58;631.88;;;;;;;;;;5009275;28;20104;-65
2023/08/07 02:47:26;;;;;;;730.58;651.50;;;;;;;;;;4991298;28;20061;-64
2023/08/07 02:49:52;;;;;;;740.60;651.88;;;;;;;;;;5009340;28;20045;-65
2023/08/07 02:52:19;;;;;;;734.55;654.25;;;;;;;;;;5009467;28;20054;-64
2023/08/07 02:54:45;;;;;;;715.90;633.05;;;;;;;;;;4989674;28;20054;-64
2023/08/07 02:57:12;;;;;;;721.70;636.75;;;;;;;;;;5009081;28;20369;-64
2023/08/07 02:59:39;;;;;;;729.60;651.00;;;;;;;;;;5009117;28;20056;-65
2023/08/07 03:02:05;;;;;;;741.22;642.13;;;;;;;;;;5007751;28;20203;-64
2023/08/07 03:04:32;;;;;;;711.47;633.63;;;;;;;;;;4992294;28;20096;-63
2023/08/07 03:06:59;;;;;;;720.97;640.63;;;;;;;;;;5008994;28;20038;-65
2023/08/07 03:09:26;;;;;;;719.92;641.28;;;;;;;;;;5008450;28;20089;-64
2023/08/07 03:11:52;;;;;;;714.55;635.75;;;;;;;;;;5008815;28;20490;-64
2023/08/07 03:14:19;;;;;;;730.28;649.92;;;;;;;;;;5008822;28;20096;-64
2023/08/07 03:16:46;;;;;;;732.33;653.53;;;;;;;;;;5009899;28;20518;-65
2023/08/07 03:19:12;;;;;;;737.22;656.65;;;;;;;;;;5006912;28;20041;-65
2023/08/07 03:21:39;;;;;;;724.22;645.20;;;;;;;;;;4990817;28;20561;-64
2023/08/07 03:24:05;;;;;;;735.90;653.65;;;;;;;;;;5004084;28;20087;-64
2023/08/07 03:26:32;;;;;;;727.97;636.17;;;;;;;;;;4991048;28;20042;-64
2023/08/07 03:28:59;;;;;;;733.35;634.55;;;;;;;;;;5008929;28;20104;-65
2023/08/07 03:31:25;;;;;;;715.72;637.55;;;;;;;;;;5009803;28;20096;-65
2023/08/07 03:33:53;;;;;;;729.60;649.72;;;;;;;;;;5007302;28;20042;-64
2023/08/07 03:36:21;;;;;;;710.05;629.95;;;;;;;;;;4990826;28;20049;-64
2023/08/07 03:38:48;;;;;;;713.40;634.97;;;;;;;;;;4991154;28;20038;-64
2023/08/07 03:41:14;;;;;;;715.50;636.70;;;;;;;;;;5006675;28;20050;-64
2023/08/07 03:43:41;;;;;;;708.00;630.22;;;;;;;;;;4991068;28;20053;-65
2023/08/07 03:46:09;;;;;;;719.58;640.45;;;;;;;;;;4982817;28;20571;-64
2023/08/07 03:48:35;;;;;;;722.50;640.03;;;;;;;;;;5008403;28;20085;-64
2023/08/07 03:51:03;;;;;;;714.75;630.38;;;;;;;;;;4990657;28;20446;-64
2023/08/07 03:53:33;;;;;;;703.15;621.90;;;;;;;;;;4990940;28;20058;-64
2023/08/07 03:56:00;;;;;;;742.03;631.17;;;;;;;;;;4973417;28;20054;-65
2023/08/07 03:58:26;;;;;;;726.88;647.17;;;;;;;;;;5008877;28;20400;-65
2023/08/07 04:00:53;;;;;;;713.17;632.40;;;;;;;;;;5006646;28;20068;-64
2023/08/07 04:03:20;;;;;;;710.47;632.50;;;;;;;;;;4990323;28;20412;-63
2023/08/07 04:05:47;;;;;;;731.88;651.58;;;;;;;;;;4990695;28;20042;-65
2023/08/07 04:08:13;;;;;;;709.20;630.50;;;;;;;;;;4980015;28;20128;-63
2023/08/07 04:10:40;;;;;;;710.92;632.88;;;;;;;;;;4973357;28;20492;-64
2023/08/07 04:13:06;;;;;;;744.03;644.20;;;;;;;;;;5007981;28;20069;-65
2023/08/07 04:15:33;;;;;;;714.50;632.67;;;;;;;;;;4979776;28;20463;-64
2023/08/07 04:17:59;;;;;;;720.88;642.40;;;;;;;;;;5008233;28;20070;-64
2023/08/07 04:20:26;;;;;;;726.08;634.42;;;;;;;;;;5007953;28;20046;-64
2023/08/07 04:22:53;;;;;;;719.42;630.67;;;;;;;;;;5008529;28;20068;-64
2023/08/07 04:25:19;;;;;;;700.95;619.65;;;;;;;;;;4974717;28;20418;-64
2023/08/07 04:27:46;;;;;;;712.55;634.33;;;;;;;;;;4990535;28;20054;-63
2023/08/07 04:30:12;;;;;;;724.20;644.60;;;;;;;;;;4989929;28;20057;-64
2023/08/07 04:32:39;;;;;;;706.53;629.28;;;;;;;;;;4984178;28;20056;-64
2023/08/07 04:35:06;;;;;;;732.20;647.28;;;;;;;;;;5006789;28;20053;-60
2023/08/07 04:37:32;;;;;;;719.15;640.25;;;;;;;;;;5010793;28;20046;-63
2023/08/07 04:40:00;;;;;;;707.53;630.63;;;;;;;;;;5011176;28;20038;-63
2023/08/07 04:42:27;;;;;;;716.38;638.85;;;;;;;;;;5011420;28;20518;-63
2023/08/07 04:44:54;;;;;;;728.28;648.38;;;;;;;;;;5011374;28;20121;-64
2023/08/07 04:47:20;;;;;;;719.47;640.30;;;;;;;;;;5011155;28;20042;-63
2023/08/07 04:49:47;;;;;;;728.22;649.47;;;;;;;;;;5012126;28;20084;-68
2023/08/07 04:52:13;;;;;;;721.72;641.65;;;;;;;;;;5010739;28;20046;-64
2023/08/07 04:54:51;;;;;;;716.58;638.90;;;;;;;;;;5007912;28;20047;-63
2023/08/07 04:57:18;;;;;;;729.53;649.80;;;;;;;;;;5011428;28;20073;-64
2023/08/07 04:59:45;;;;;;;721.85;643.58;;;;;;;;;;4989996;28;20073;-64
2023/08/07 05:02:11;;;;;;;746.40;665.50;;;;;;;;;;5011166;28;20054;-64
2023/08/07 05:04:38;;;;;;;750.17;668.50;;;;;;;;;;5011044;28;20049;-64
2023/08/07 05:07:05;;;;;;;740.40;659.20;;;;;;;;;;5010652;28;20443;-64
2023/08/07 05:09:31;;;;;;;756.50;674.58;;;;;;;;;;5010166;28;20046;-63
2023/08/07 05:11:58;;;;;;;757.78;674.63;;;;;;;;;;5009293;28;20250;-64
2023/08/07 05:14:24;;;;;;;756.30;674.78;;;;;;;;;;5009428;28;20140;-64
2023/08/07 05:16:51;;;;;;;750.22;670.08;;;;;;;;;;5009924;28;20050;-64
2023/08/07 05:19:17;;;;;;;767.22;684.55;;;;;;;;;;5009482;28;20048;-64
2023/08/07 05:21:44;;;;;;;763.88;683.50;;;;;;;;;;5008949;28;20046;-64
2023/08/07 05:24:12;;;;;;;767.03;683.22;;;;;;;;;;4991412;28;20045;-65
2023/08/07 05:26:38;;;;;;;770.47;688.75;;;;;;;;;;5010748;28;20078;-63
2023/08/07 05:29:06;;;;;;;782.13;689.40;;;;;;;;;;5010282;28;20149;-64
2023/08/07 05:31:33;;;;;;;771.25;691.92;;;;;;;;;;5011956;28;20038;-62
2023/08/07 05:34:00;;;;;;;767.40;687.88;;;;;;;;;;5010588;28;20053;-63
2023/08/07 05:36:26;;;;;;;770.42;689.47;;;;;;;;;;5010053;28;20057;-62
2023/08/07 05:38:53;;;;;;;773.50;692.35;;;;;;;;;;5003133;28;20123;-63
2023/08/07 05:41:20;;;;;;;764.67;684.92;;;;;;;;;;5009926;28;20487;-62
2023/08/07 05:43:46;;;;;;;769.63;687.90;;;;;;;;;;5008782;28;20081;-63
2023/08/07 05:46:13;;;;;;;753.15;673.28;;;;;;;;;;5009989;28;20049;-62
2023/08/07 05:48:39;;;;;;;751.05;670.60;;;;;;;;;;5009518;28;20049;-65
2023/08/07 05:51:07;;;;;;;751.10;669.80;;;;;;;;;;5010023;28;20042;-64
2023/08/07 05:53:34;;;;;;;743.10;663.42;;;;;;;;;;5010149;28;20419;-64
2023/08/07 05:56:01;;;;;;;758.28;677.05;;;;;;;;;;5010125;28;20045;-65
2023/08/07 05:58:28;;;;;;;744.20;663.67;;;;;;;;;;5010768;28;20069;-64
2023/08/07 06:00:54;;;;;;;749.60;670.30;;;;;;;;;;5010154;28;20472;-65
2023/08/07 06:03:21;;;;;;;740.42;662.63;;;;;;;;;;5006439;28;20050;-65
2023/08/07 06:05:47;;;;;;;752.17;673.55;;;;;;;;;;5009757;28;20446;-65
2023/08/07 06:08:14;;;;;;;753.95;674.20;;;;;;;;;;5010067;28;20513;-64
2023/08/07 06:10:41;;;;;;;744.90;665.35;;;;;;;;;;5010585;28;20054;-64
2023/08/07 06:13:08;;;;;;;767.88;687.60;;;;;;;;;;5008920;28;20101;-65
2023/08/07 06:15:40;;;;;;;744.65;665.45;;;;;;;;;;5006719;28;20065;-65
2023/08/07 06:18:06;;;;;;;757.83;677.80;;;;;;;;;;5009756;28;20667;-64
2023/08/07 06:20:33;;;;;;;752.72;672.08;;;;;;;;;;5009694;28;20041;-63
2023/08/07 06:23:00;;;;;;;755.45;674.15;;;;;;;;;;5009812;28;20057;-66
2023/08/07 06:25:27;;;;;;;759.30;681.88;;;;;;;;;;5010127;28;20058;-65
2023/08/07 06:27:54;;;;;;;778.15;698.30;;;;;;;;;;5008531;28;20046;-64
2023/08/07 06:30:20;;;;;;;791.90;711.08;;;;;;;;;;5009366;28;20077;-65
2023/08/07 06:32:47;;;;;;;789.67;709.67;;;;;;;;;;5009807;28;20046;-64
2023/08/07 06:35:14;;;;;;;803.13;719.85;;;;;;;;;;5009277;28;20532;-64
2023/08/07 06:37:41;;;;;;;803.53;722.40;;;;;;;;;;5010311;28;20124;-65
2023/08/07 06:40:07;;;;;;;789.33;708.47;;;;;;;;;;5007178;28;20086;-64
2023/08/07 06:42:34;;;;;;;782.70;703.00;;;;;;;;;;5009432;28;20042;-64
2023/08/07 06:45:00;;;;;;;800.42;717.83;;;;;;;;;;5009414;28;20041;-65
2023/08/07 06:47:27;;;;;;;781.42;701.03;;;;;;;;;;5008788;28;20555;-65
2023/08/07 06:49:54;;;;;;;794.60;712.65;;;;;;;;;;5009324;28;20073;-66
2023/08/07 06:52:20;;;;;;;773.85;692.97;;;;;;;;;;5009730;28;20042;-65
2023/08/07 06:54:47;;;;;;;766.13;685.78;;;;;;;;;;5008948;28;20049;-64
2023/08/07 06:57:13;;;;;;;764.97;684.65;;;;;;;;;;5008573;28;20532;-65
2023/08/07 06:59:40;;;;;;;764.70;683.92;;;;;;;;;;5008953;28;20085;-65
2023/08/07 07:02:06;;;;;;;759.90;675.88;;;;;;;;;;5009174;28;20066;-66
2023/08/07 07:04:33;;;;;;;784.42;702.47;;;;;;;;;;5009703;28;20053;-65
2023/08/07 07:07:00;;;;;;;771.92;690.45;;;;;;;;;;5008780;28;20058;-65
2023/08/07 07:09:28;;;;;;;774.20;693.60;;;;;;;;;;5008385;28;20489;-65
2023/08/07 07:11:55;;;;;;;773.40;692.45;;;;;;;;;;5005038;28;20050;-65
2023/08/07 07:14:23;;;;;;;749.78;669.50;;;;;;;;;;5003932;28;20047;-66
2023/08/07 07:16:50;;;;;;;772.05;692.08;;;;;;;;;;4997329;28;20084;-66
2023/08/07 07:19:16;;;;;;;772.28;691.97;;;;;;;;;;5008950;28;20042;-65
2023/08/07 07:21:43;;;;;;;815.40;731.25;;;;;;;;;;5008890;28;20042;-64
2023/08/07 07:24:09;;;;;;;811.67;726.17;;;;;;;;;;5008614;28;20046;-64
2023/08/07 07:26:36;;;;;;;801.78;719.95;;;;;;;;;;5008705;28;20626;-64
2023/08/07 07:29:02;;;;;;;811.58;726.05;;;;;;;;;;5008990;28;20668;-64
2023/08/07 07:31:29;;;;;;;798.08;717.38;;;;;;;;;;5008282;28;20044;-65
2023/08/07 07:33:56;;;;;;;801.00;720.08;;;;;;;;;;5008651;28;20037;-64
2023/08/07 07:36:22;;;;;;;788.13;707.10;;;;;;;;;;5008675;28;20042;-64
2023/08/07 07:38:49;;;;;;;791.92;712.70;;;;;;;;;;5008961;28;20116;-65
2023/08/07 07:41:15;;;;;;;814.88;731.17;;;;;;;;;;5007949;28;20050;-64
2023/08/07 07:43:42;;;;;;;808.42;725.20;;;;;;;;;;5008702;28;20050;-65
2023/08/07 07:46:09;;;;;;;820.03;736.63;;;;;;;;;;5007885;28;20073;-64
2023/08/07 07:48:36;;;;;;;808.67;727.80;;;;;;;;;;5007076;28;20145;-64
2023/08/07 07:51:03;;;;;;;816.42;733.95;;;;;;;;;;5008607;28;20399;-65
2023/08/07 07:53:30;;;;;;;801.53;721.35;;;;;;;;;;5008403;28;20368;-65
2023/08/07 07:55:57;;;;;;;808.63;724.45;;;;;;;;;;5008269;28;20073;-65
2023/08/07 07:58:24;;;;;;;814.85;732.15;;;;;;;;;;5008664;28;20456;-64
2023/08/07 08:00:53;;;;;;;810.75;728.70;;;;;;;;;;5008586;28;20042;-65
2023/08/07 08:03:21;;;;;;;813.55;730.15;;;;;;;;;;5008225;28;20045;-65
2023/08/07 08:05:51;;;;;;;813.65;732.40;;;;;;;;;;5006904;28;20060;-64
2023/08/07 08:08:17;;;;;;;815.25;732.15;;;;;;;;;;5008302;28;20410;-64
2023/08/07 08:10:47;;;;;;;812.10;730.38;;;;;;;;;;5009613;28;20169;-64
2023/08/07 08:13:14;;;;;;;807.58;723.92;;;;;;;;;;5011648;28;20048;-64
2023/08/07 08:15:40;;;;;;;810.17;729.25;;;;;;;;;;5012079;28;20045;-65
2023/08/07 08:18:07;;;;;;;841.47;757.67;;;;;;;;;;5012002;28;20053;-64
2023/08/07 08:20:34;;;;;;;842.30;757.95;;;;;;;;;;5011613;28;20050;-63
2023/08/07 08:23:01;;;;;;;852.55;765.20;;;;;;;;;;5011875;28;20069;-64
2023/08/07 08:25:27;;;;;;;845.92;763.00;;;;;;;;;;5011948;28;20042;-64
2023/08/07 08:27:54;;;;;;;851.42;768.28;;;;;;;;;;5011397;28;20144;-65
2023/08/07 08:30:20;;;;;;;837.92;756.17;;;;;;;;;;5011617;28;20042;-64
2023/08/07 08:32:47;;;;;;;839.65;756.72;;;;;;;;;;5011952;28;20041;-65
2023/08/07 08:35:14;;;;;;;851.05;765.70;;;;;;;;;;5011666;28;20058;-64
2023/08/07 08:37:41;;;;;;;828.88;746.85;;;;;;;;;;5011639;28;20104;-64
2023/08/07 08:40:09;;;;;;;815.75;732.92;;;;;;;;;;5010350;28;20059;-65
2023/08/07 08:42:36;;;;;;;800.90;719.42;;;;;;;;;;5007034;28;20072;-64
2023/08/07 08:45:04;;;;;;;817.83;734.47;;;;;;;;;;5007526;28;20516;-64
2023/08/07 08:47:31;;;;;;;795.10;713.75;;;;;;;;;;5010977;28;20049;-64
2023/08/07 08:50:01;;;;;;;810.78;724.58;;;;;;;;;;5011425;28;20046;-66
2023/08/07 08:52:29;;;;;;;798.67;718.53;;;;;;;;;;5011819;28;20522;-65
2023/08/07 08:54:56;;;;;;;791.20;710.35;;;;;;;;;;5007967;28;20042;-65
2023/08/07 08:57:24;;;;;;;825.60;741.58;;;;;;;;;;5010978;28;20034;-64
2023/08/07 08:59:51;;;;;;;808.50;727.72;;;;;;;;;;5011218;28;20472;-65
2023/08/07 09:02:17;;;;;;;838.17;754.30;;;;;;;;;;5010635;28;20053;-65
2023/08/07 09:04:44;;;;;;;840.45;757.22;;;;;;;;;;5011937;28;20124;-63
2023/08/07 09:07:13;;;;;;;851.80;767.75;;;;;;;;;;5011146;28;20519;-64
2023/08/07 09:09:40;;;;;;;861.05;777.03;;;;;;;;;;5010518;28;20471;-64
2023/08/07 09:12:12;;;;;;;862.53;778.42;;;;;;;;;;5010750;28;20057;-64
2023/08/07 09:14:40;;;;;;;846.15;762.85;;;;;;;;;;5007083;28;20044;-64
2023/08/07 09:17:07;;;;;;;852.30;767.05;;;;;;;;;;4993515;28;20045;-64
2023/08/07 09:19:34;;;;;;;858.13;774.75;;;;;;;;;;5009887;28;20092;-64
2023/08/07 09:22:01;;;;;;;853.85;771.42;;;;;;;;;;5010010;28;20120;-65
2023/08/07 09:24:27;;;;;;;860.25;775.10;;;;;;;;;;4992483;28;20464;-64
2023/08/07 09:26:55;;;;;;;857.85;775.00;;;;;;;;;;5010746;28;20088;-64
2023/08/07 09:29:22;;;;;;;858.65;775.45;;;;;;;;;;5010268;28;20045;-64
2023/08/07 09:31:49;;;;;;;856.80;774.60;;;;;;;;;;5011527;28;20049;-65
2023/08/07 09:34:19;;;;;;;852.97;769.33;;;;;;;;;;5010705;28;20061;-65
2023/08/07 09:36:45;;;;;;;849.10;766.70;;;;;;;;;;4992794;28;20064;-65
2023/08/07 09:39:12;;;;;;;862.83;775.45;;;;;;;;;;5009771;28;20050;-65
2023/08/07 09:41:38;;;;;;;855.78;772.35;;;;;;;;;;5008561;28;20125;-65
2023/08/07 09:44:10;;;;;;;871.63;784.33;;;;;;;;;;5010279;28;20037;-66
2023/08/07 09:46:41;;;;;;;872.85;789.33;;;;;;;;;;5010444;28;20407;-65
2023/08/07 09:49:07;;;;;;;894.42;808.47;;;;;;;;;;5009337;28;20046;-65
2023/08/07 09:51:44;;;;;;;891.70;807.25;;;;;;;;;;4992464;28;20096;-65
2023/08/07 09:54:11;;;;;;;902.05;814.15;;;;;;;;;;5006577;28;20042;-66
2023/08/07 09:56:38;;;;;;;901.58;816.85;;;;;;;;;;5010026;28;20034;-65
2023/08/07 09:59:05;;;;;;;937.95;846.90;;;;;;;;;;5010193;28;20073;-65
2023/08/07 10:01:32;;;;;;;908.10;821.30;;;;;;;;;;5010464;28;20053;-64
2023/08/07 10:04:00;;;;;;;910.25;826.85;;;;;;;;;;5010582;28;20555;-65
2023/08/07 10:06:26;;;;;;;902.60;817.25;;;;;;;;;;5006039;28;20100;-65
2023/08/07 10:08:54;;;;;;;886.47;802.90;;;;;;;;;;5005849;28;20120;-65
2023/08/07 10:11:21;;;;;;;894.33;809.38;;;;;;;;;;5009662;28;20066;-64
2023/08/07 10:13:47;;;;;;;887.75;803.75;;;;;;;;;;5010629;28;20034;-65
2023/08/07 10:16:14;;;;;;;903.22;818.30;;;;;;;;;;5009467;28;20073;-65
2023/08/07 10:18:41;;;;;;;909.00;823.80;;;;;;;;;;5009628;28;20050;-65
2023/08/07 10:21:07;;;;;;;914.78;827.83;;;;;;;;;;5009837;28;20042;-64
2023/08/07 10:23:38;;;;;;;901.25;815.17;;;;;;;;;;5009841;28;20492;-64
2023/08/07 10:26:06;;;;;;;914.28;825.70;;;;;;;;;;5009628;28;20046;-65
2023/08/07 10:28:33;;;;;;;909.35;823.17;;;;;;;;;;5009722;28;20040;-64
2023/08/07 10:31:00;;;;;;;916.58;830.92;;;;;;;;;;5009469;28;20516;-65
2023/08/07 10:33:27;;;;;;;914.00;828.38;;;;;;;;;;4991130;28;20048;-65
2023/08/07 10:35:53;;;;;;;925.83;839.90;;;;;;;;;;5009701;28;20049;-64
2023/08/07 10:38:22;;;;;;;933.30;844.97;;;;;;;;;;5009155;28;20125;-65
2023/08/07 10:41:07;;;;;;;938.17;852.65;;;;;;;;;;5009545;28;20120;-65
2023/08/07 10:43:37;;;;;;;926.58;840.38;;;;;;;;;;5010084;28;20066;-64
2023/08/07 10:46:05;;;;;;;934.58;847.58;;;;;;;;;;5009631;28;20053;-64
2023/08/07 10:48:37;;;;;;;937.92;850.80;;;;;;;;;;5008662;28;20411;-64
2023/08/07 10:51:04;;;;;;;944.50;857.50;;;;;;;;;;5009235;28;20048;-64
2023/08/07 10:53:32;;;;;;;944.30;856.75;;;;;;;;;;4991516;28;20042;-64
2023/08/07 10:56:07;;;;;;;938.30;850.50;;;;;;;;;;5009451;28;20049;-65
2023/08/07 10:58:38;;;;;;;942.78;856.15;;;;;;;;;;5009892;28;20045;-63
2023/08/07 11:01:21;;;;;;;939.55;849.10;;;;;;;;;;5008848;28;20483;-65
2023/08/07 11:03:49;;;;;;;921.28;833.67;;;;;;;;;;5006497;28;20042;-64
2023/08/07 11:06:16;;;;;;;943.78;855.65;;;;;;;;;;5008783;28;20045;-64
2023/08/07 11:08:42;;;;;;;940.03;851.78;;;;;;;;;;5009210;28;20037;-64
2023/08/07 11:11:09;;;;;;;962.30;870.92;;;;;;;;;;5008527;28;20046;-64
2023/08/07 11:13:35;;;;;;;958.53;869.88;;;;;;;;;;5009797;28;20053;-64
2023/08/07 11:16:02;;;;;;;967.35;878.45;;;;;;;;;;5008612;28;20135;-64
2023/08/07 11:18:30;;;;;;;981.47;890.35;;;;;;;;;;5008747;28;20057;-65
2023/08/07 11:20:56;;;;;;;978.30;889.38;;;;;;;;;;5008994;28;20117;-65
2023/08/07 11:23:24;;;;;;;975.17;887.40;;;;;;;;;;5008911;28;20085;-65
2023/08/07 11:25:52;;;;;;;975.47;887.90;;;;;;;;;;5009570;28;20069;-65
2023/08/07 11:28:19;;;;;;;976.97;888.25;;;;;;;;;;5008572;28;20042;-65
2023/08/07 11:30:49;;;;;;;986.17;897.20;;;;;;;;;;5004990;28;20100;-65
2023/08/07 11:33:19;;;;;;;969.38;880.72;;;;;;;;;;5005308;28;20046;-66
2023/08/07 11:35:47;;;;;;;963.60;875.13;;;;;;;;;;5008977;28;20494;-65
2023/08/07 11:38:28;;;;;;;967.92;875.40;;;;;;;;;;5008036;28;20439;-65
2023/08/07 11:40:56;;;;;;;951.05;863.60;;;;;;;;;;5007432;28;20065;-65
2023/08/07 11:43:22;;;;;;;945.25;857.17;;;;;;;;;;5008557;28;20049;-65
2023/08/07 11:45:49;;;;;;;943.58;856.65;;;;;;;;;;5011781;28;20052;-65
2023/08/07 11:48:16;;;;;;;935.60;846.92;;;;;;;;;;5011930;28;20046;-66
2023/08/07 11:50:43;;;;;;;930.13;843.33;;;;;;;;;;5012341;28;20426;-64
2023/08/07 11:53:10;;;;;;;965.10;872.20;;;;;;;;;;5012348;28;20111;-64
2023/08/07 11:55:45;;;;;;;940.28;853.65;;;;;;;;;;5012758;28;20120;-65
2023/08/07 11:58:12;;;;;;;952.83;865.53;;;;;;;;;;5012053;28;20069;-65
2023/08/07 12:00:41;;;;;;;966.50;878.85;;;;;;;;;;5012428;28;20104;-65
2023/08/07 12:03:23;;;;;;;980.30;889.97;;;;;;;;;;5012083;28;20054;-65
2023/08/07 12:05:49;;;;;;;979.75;890.97;;;;;;;;;;5009234;28;20095;-65
2023/08/07 12:08:16;;;;;;;999.40;907.42;;;;;;;;;;5012042;28;20069;-65
2023/08/07 12:10:43;;;;;;;1003.90;913.50;;;;;;;;;;5012513;28;20408;-65
2023/08/07 12:13:11;;;;;;;1012.63;920.65;;;;;;;;;;5012032;28;20061;-65
2023/08/07 12:15:38;;;;;;;1007.40;917.92;;;;;;;;;;4987623;28;20408;-65
2023/08/07 12:18:07;;;;;;;1021.80;929.58;;;;;;;;;;4980243;28;20046;-65
2023/08/07 12:20:33;;;;;;;996.53;906.55;;;;;;;;;;5008005;28;20155;-65
2023/08/07 12:23:00;;;;;;;988.38;895.60;;;;;;;;;;5008772;28;20042;-66
2023/08/07 12:25:26;;;;;;;986.10;897.53;;;;;;;;;;5011904;28;20053;-65
2023/08/07 12:27:53;;;;;;;981.92;892.65;;;;;;;;;;5011474;28;20049;-65
2023/08/07 12:30:19;;;;;;;976.65;887.65;;;;;;;;;;5011683;28;20058;-65
2023/08/07 12:32:46;;;;;;;965.00;876.63;;;;;;;;;;5010170;28;20470;-65
2023/08/07 12:35:12;;;;;;;968.80;875.33;;;;;;;;;;5011312;28;20429;-66
2023/08/07 12:37:41;;;;;;;943.25;856.95;;;;;;;;;;5012147;28;20503;-66
2023/08/07 12:40:08;;;;;;;946.20;858.33;;;;;;;;;;5009441;28;20411;-65
2023/08/07 12:42:37;;;;;;;935.92;847.90;;;;;;;;;;5011432;28;20074;-66
2023/08/07 12:45:04;;;;;;;924.80;838.58;;;;;;;;;;5011458;28;20053;-66
2023/08/07 12:47:30;;;;;;;928.90;840.58;;;;;;;;;;5011248;28;20038;-65
2023/08/07 12:49:59;;;;;;;919.78;833.03;;;;;;;;;;5011802;28;20058;-66
2023/08/07 12:52:26;;;;;;;914.13;827.92;;;;;;;;;;5011273;28;20052;-66
2023/08/07 12:54:53;;;;;;;905.70;821.85;;;;;;;;;;5011066;28;20049;-66
2023/08/07 12:57:20;;;;;;;902.10;817.05;;;;;;;;;;5010167;28;20036;-65
2023/08/07 12:59:46;;;;;;;912.83;826.28;;;;;;;;;;5011282;28;20038;-66
2023/08/07 13:02:13;;;;;;;927.75;837.40;;;;;;;;;;5010993;28;20053;-66
2023/08/07 13:04:40;;;;;;;932.28;845.70;;;;;;;;;;5012010;28;20042;-65
2023/08/07 13:07:06;;;;;;;934.55;848.03;;;;;;;;;;5011140;28;20072;-65
2023/08/07 13:09:33;;;;;;;942.20;855.03;;;;;;;;;;5010267;28;20050;-64
2023/08/07 13:12:00;;;;;;;945.13;858.08;;;;;;;;;;5010991;28;20553;-65
2023/08/07 13:14:26;;;;;;;948.80;860.97;;;;;;;;;;5008448;28;20042;-65
2023/08/07 13:16:53;;;;;;;943.13;856.72;;;;;;;;;;5011961;28;20129;-65
2023/08/07 13:19:20;;;;;;;939.75;852.90;;;;;;;;;;5011095;28;20042;-64
2023/08/07 13:21:47;;;;;;;948.67;861.03;;;;;;;;;;5010435;28;20448;-65
2023/08/07 13:24:13;;;;;;;952.50;861.30;;;;;;;;;;5010134;28;20033;-65
2023/08/07 13:26:45;;;;;;;947.63;860.10;;;;;;;;;;5010635;28;20042;-65
2023/08/07 13:29:12;;;;;;;967.38;876.15;;;;;;;;;;5010538;28;20832;-64
2023/08/07 13:31:41;;;;;;;958.85;870.60;;;;;;;;;;5009433;28;20049;-65
2023/08/07 13:34:08;;;;;;;965.20;876.08;;;;;;;;;;4993194;28;20037;-66
2023/08/07 13:36:35;;;;;;;968.15;879.55;;;;;;;;;;5010499;28;20038;-64
2023/08/07 13:39:02;;;;;;;951.78;865.88;;;;;;;;;;5008918;28;20042;-65
2023/08/07 13:41:28;;;;;;;974.38;885.58;;;;;;;;;;5010115;28;20038;-65
2023/08/07 13:43:55;;;;;;;971.47;882.58;;;;;;;;;;5008164;28;20042;-64
2023/08/07 13:46:25;;;;;;;981.30;892.28;;;;;;;;;;5009941;28;20038;-65
2023/08/07 13:48:51;;;;;;;971.38;883.78;;;;;;;;;;5006692;28;20041;-64
2023/08/07 13:51:19;;;;;;;976.90;888.30;;;;;;;;;;5009913;28;20074;-65
2023/08/07 13:53:47;;;;;;;966.78;878.45;;;;;;;;;;5010187;28;20045;-66
2023/08/07 13:56:14;;;;;;;972.95;882.10;;;;;;;;;;5009987;28;20116;-66